createdAt,value
2022-12-19T00:01:37.803Z,61.40
2022-12-19T00:04:09.090Z,54.13
2022-12-19T00:06:41.391Z,65.43
2022-12-19T00:09:12.834Z,63.33
2022-12-19T00:11:40.899Z,59.20
2022-12-19T00:14:11.383Z,56.73
2022-12-19T00:16:38.487Z,79.90
2022-12-19T00:19:05.685Z,77.03
2022-12-19T00:21:35.157Z,78.07
2022-12-19T00:24:11.240Z,69.73
2022-12-19T00:26:49.804Z,58.90
2022-12-19T00:29:17.025Z,69.90
2022-12-19T00:31:45.581Z,61.37
2022-12-19T00:34:14.920Z,70.77
2022-12-19T00:36:41.887Z,63.33
2022-12-19T00:39:10.347Z,67.07
2022-12-19T00:41:41.808Z,76.17
2022-12-19T00:44:15.495Z,59.70
2022-12-19T00:46:42.765Z,72.00
2022-12-19T00:49:13.990Z,89.10
2022-12-19T00:51:41.145Z,66.93
2022-12-19T00:54:10.056Z,52.90
2022-12-19T00:56:38.511Z,63.83
2022-12-19T00:59:07.678Z,85.90
2022-12-19T01:01:37.681Z,59.20
2022-12-19T01:06:54.641Z,59.07
2022-12-19T01:09:32.205Z,64.87
2022-12-19T01:12:17.836Z,70.67
2022-12-19T01:14:44.950Z,57.07
2022-12-19T01:17:12.304Z,76.73
2022-12-19T01:19:44.113Z,67.43
2022-12-19T01:22:13.298Z,63.60
2022-12-19T01:24:40.645Z,63.07
2022-12-19T01:27:07.913Z,74.57
2022-12-19T01:29:37.638Z,64.13
2022-12-19T01:32:18.836Z,63.07
2022-12-19T01:34:45.826Z,69.27
2022-12-19T01:37:12.822Z,69.47
2022-12-19T01:39:39.809Z,77.97
2022-12-19T01:42:23.581Z,90.20
2022-12-19T01:45:13.403Z,83.03
2022-12-19T01:47:53.624Z,59.97
2022-12-19T01:50:33.527Z,79.10
2022-12-19T01:53:01.938Z,70.37
2022-12-19T01:55:30.650Z,86.53
2022-12-19T01:57:59.193Z,76.67
2022-12-19T02:00:26.340Z,93.30
2022-12-19T02:03:02.966Z,127.33
2022-12-19T02:05:31.322Z,104.57
2022-12-19T02:08:00.232Z,81.17
2022-12-19T02:10:27.373Z,99.57
2022-12-19T02:12:55.137Z,100.07
2022-12-19T02:15:22.533Z,116.90
2022-12-19T02:18:10.955Z,86.90
2022-12-19T02:21:04.761Z,94.50
2022-12-19T02:23:51.437Z,102.43
2022-12-19T02:26:46.177Z,87.97
2022-12-19T02:29:35.166Z,92.67
2022-12-19T02:32:16.988Z,88.27
2022-12-19T02:35:03.767Z,82.83
2022-12-19T02:37:45.393Z,91.27
2022-12-19T02:40:20.370Z,81.53
2022-12-19T02:42:54.683Z,90.77
2022-12-19T02:45:28.855Z,96.07
2022-12-19T02:48:03.330Z,87.73
2022-12-19T02:50:42.253Z,102.73
2022-12-19T02:53:12.500Z,109.00
2022-12-19T02:55:52.975Z,107.23
2022-12-19T02:58:57.727Z,109.33
2022-12-19T03:01:38.417Z,101.07
2022-12-19T03:04:21.119Z,110.77
2022-12-19T03:07:01.844Z,112.57
2022-12-19T03:09:43.645Z,88.20
2022-12-19T03:12:18.821Z,102.67
2022-12-19T03:14:47.562Z,93.87
2022-12-19T03:17:14.809Z,97.90
2022-12-19T03:19:42.219Z,104.73
2022-12-19T03:22:09.310Z,105.90
2022-12-19T03:24:36.391Z,112.40
2022-12-19T03:27:14.412Z,113.00
2022-12-19T03:29:56.315Z,100.43
2022-12-19T03:32:24.640Z,113.13
2022-12-19T03:35:07.231Z,95.77
2022-12-19T03:37:37.850Z,87.33
2022-12-19T03:40:15.864Z,98.40
2022-12-19T03:43:03.765Z,93.87
2022-12-19T03:45:40.250Z,96.23
2022-12-19T03:48:11.669Z,111.03
2022-12-19T03:51:09.129Z,99.87
2022-12-19T03:53:48.003Z,112.40
2022-12-19T03:56:22.808Z,102.03
2022-12-19T03:58:57.851Z,112.27
2022-12-19T04:01:27.759Z,109.83
2022-12-19T04:03:56.784Z,106.27
2022-12-19T04:06:24.016Z,88.63
2022-12-19T04:08:51.391Z,95.37
2022-12-19T04:11:20.692Z,102.90
2022-12-19T04:13:58.973Z,92.70
2022-12-19T04:16:46.501Z,99.23
2022-12-19T04:19:30.294Z,101.40
2022-12-19T04:22:06.673Z,100.53
2022-12-19T04:24:37.485Z,103.07
2022-12-19T04:27:06.740Z,101.63
2022-12-19T04:29:37.444Z,103.90
2022-12-19T04:32:06.647Z,88.80
2022-12-19T04:34:33.745Z,96.17
2022-12-19T04:37:00.786Z,99.47
2022-12-19T04:39:28.418Z,87.37
2022-12-19T04:41:55.396Z,104.77
2022-12-19T04:44:22.416Z,101.77
2022-12-19T04:46:49.526Z,96.83
2022-12-19T04:49:16.612Z,90.47
2022-12-19T04:51:43.611Z,89.00
2022-12-19T04:54:10.586Z,93.63
2022-12-19T04:56:37.585Z,107.37
2022-12-19T04:59:04.590Z,99.40
2022-12-19T05:01:31.794Z,100.43
2022-12-19T05:04:04.251Z,105.07
2022-12-19T05:06:31.988Z,102.00
2022-12-19T05:08:59.002Z,113.10
2022-12-19T05:11:26.086Z,106.60
2022-12-19T05:13:53.169Z,101.20
2022-12-19T05:16:20.210Z,98.80
2022-12-19T05:18:47.268Z,103.67
2022-12-19T05:21:14.584Z,96.00
2022-12-19T05:23:41.635Z,108.27
2022-12-19T05:26:11.068Z,93.87
2022-12-19T05:28:38.110Z,95.47
2022-12-19T05:31:17.241Z,88.43
2022-12-19T05:33:44.783Z,95.67
2022-12-19T05:36:13.336Z,106.87
2022-12-19T05:38:40.441Z,92.67
2022-12-19T05:41:16.299Z,86.77
2022-12-19T05:43:44.862Z,109.70
2022-12-19T05:46:12.383Z,96.77
2022-12-19T05:48:39.463Z,102.00
2022-12-19T05:51:06.548Z,109.20
2022-12-19T05:53:36.792Z,112.07
2022-12-19T05:56:09.218Z,106.80
2022-12-19T05:58:38.431Z,104.07
2022-12-19T06:01:12.095Z,106.47
2022-12-19T06:03:39.457Z,102.87
2022-12-19T06:06:10.841Z,104.47
2022-12-19T06:08:38.096Z,109.57
2022-12-19T06:11:07.417Z,122.87
2022-12-19T06:13:35.620Z,171.47
2022-12-19T06:16:06.981Z,142.90
2022-12-19T06:18:34.317Z,119.87
2022-12-19T06:21:04.683Z,114.03
2022-12-19T06:23:33.436Z,116.23
2022-12-19T06:26:01.421Z,104.10
2022-12-19T06:28:29.901Z,120.00
2022-12-19T06:30:58.019Z,104.63
2022-12-19T06:33:25.859Z,138.20
2022-12-19T06:36:06.527Z,159.70
2022-12-19T06:38:34.869Z,118.87
2022-12-19T06:41:22.420Z,124.07
2022-12-19T06:43:53.428Z,100.77
2022-12-19T06:46:21.524Z,120.07
2022-12-19T06:48:48.510Z,102.83
2022-12-19T06:51:15.692Z,141.70
2022-12-19T06:53:42.674Z,150.60
2022-12-19T06:56:11.093Z,133.13
2022-12-19T06:58:38.285Z,138.97
2022-12-19T07:01:05.841Z,205.07
2022-12-19T07:03:38.660Z,191.77
2022-12-19T07:06:06.847Z,157.50
2022-12-19T07:08:33.977Z,209.57
2022-12-19T07:11:01.038Z,231.67
2022-12-19T07:13:28.282Z,206.90
2022-12-19T07:16:00.031Z,179.63
2022-12-19T07:18:28.809Z,201.50
2022-12-19T07:20:56.825Z,192.93
2022-12-19T07:23:24.377Z,182.90
2022-12-19T07:25:51.409Z,140.33
2022-12-19T07:28:18.858Z,161.77
2022-12-19T07:30:45.901Z,163.47
2022-12-19T07:33:18.296Z,184.13
2022-12-19T07:35:48.365Z,129.53
2022-12-19T07:38:15.363Z,123.87
2022-12-19T07:40:42.428Z,133.03
2022-12-19T07:43:09.732Z,129.93
2022-12-19T07:45:38.611Z,156.17
2022-12-19T07:48:06.939Z,131.27
2022-12-19T07:50:34.672Z,139.87
2022-12-19T07:53:01.997Z,116.97
2022-12-19T07:55:29.429Z,117.43
2022-12-19T07:57:56.467Z,121.00
2022-12-19T08:00:23.533Z,129.93
2022-12-19T08:02:50.815Z,124.97
2022-12-19T08:05:17.991Z,105.23
2022-12-19T08:07:45.184Z,105.77
2022-12-19T08:10:14.674Z,102.67
2022-12-19T08:12:41.899Z,109.93
2022-12-19T08:15:09.276Z,98.93
2022-12-19T08:17:40.953Z,89.67
2022-12-19T08:20:09.731Z,90.20
2022-12-19T08:22:36.927Z,83.03
2022-12-19T08:25:04.383Z,77.90
2022-12-19T08:27:31.383Z,70.97
2022-12-19T08:29:58.432Z,70.03
2022-12-19T08:32:25.441Z,88.37
2022-12-19T08:34:52.554Z,78.67
2022-12-19T08:37:19.487Z,77.53
2022-12-19T08:39:46.564Z,88.30
2022-12-19T08:42:13.614Z,89.73
2022-12-19T08:44:40.711Z,92.63
2022-12-19T08:47:07.718Z,93.67
2022-12-19T08:49:34.786Z,83.03
2022-12-19T08:52:01.824Z,86.93
2022-12-19T08:54:28.879Z,85.53
2022-12-19T08:56:55.842Z,95.23
2022-12-19T08:59:30.261Z,106.10
2022-12-19T09:02:00.837Z,107.63
2022-12-19T09:05:52.832Z,88.50
2022-12-19T09:07:16.492Z,106.23
2022-12-19T09:09:47.184Z,115.40
2022-12-19T09:12:15.542Z,105.30
2022-12-19T09:14:44.262Z,107.07
2022-12-19T09:17:11.477Z,115.67
2022-12-19T09:19:38.661Z,99.77
2022-12-19T09:22:06.944Z,109.40
2022-12-19T09:24:33.978Z,99.90
2022-12-19T09:27:01.036Z,106.00
2022-12-19T09:29:32.191Z,94.23
2022-12-19T09:32:02.271Z,96.40
2022-12-19T09:34:37.853Z,97.13
2022-12-19T09:37:07.929Z,87.97
2022-12-19T09:39:36.297Z,98.27
2022-12-19T09:42:41.697Z,95.47
2022-12-19T09:45:31.540Z,95.13
2022-12-19T09:48:00.238Z,98.47
2022-12-19T09:50:51.831Z,94.33
2022-12-19T09:53:33.502Z,96.87
2022-12-19T09:56:02.867Z,95.47
2022-12-19T09:58:42.476Z,94.10
2022-12-19T10:01:36.563Z,95.27
2022-12-19T10:04:10.980Z,105.73
2022-12-19T10:07:16.374Z,97.83
2022-12-19T10:12:37.444Z,93.17
2022-12-19T10:12:44.610Z,84.73
2022-12-19T10:15:57.311Z,76.33
2022-12-19T10:18:52.685Z,83.10
2022-12-19T10:21:42.883Z,82.63
2022-12-19T10:24:38.289Z,86.80
2022-12-19T10:27:28.978Z,85.33
2022-12-19T10:30:17.317Z,73.23
2022-12-19T10:33:07.816Z,75.03
2022-12-19T10:35:44.637Z,77.03
2022-12-19T10:38:21.348Z,83.70
2022-12-19T10:41:04.172Z,88.20
2022-12-19T10:44:09.560Z,83.80
2022-12-19T10:46:39.923Z,82.60
2022-12-19T10:49:13.246Z,84.27
2022-12-19T10:51:40.979Z,83.83
2022-12-19T10:54:08.123Z,78.20
2022-12-19T10:56:37.944Z,80.93
2022-12-19T10:59:18.806Z,81.27
2022-12-19T11:02:00.339Z,80.07
2022-12-19T11:04:33.102Z,78.10
2022-12-19T11:07:03.143Z,79.80
2022-12-19T11:09:40.797Z,80.83
2022-12-19T11:16:25.178Z,80.87
2022-12-19T11:19:49.146Z,81.57
2022-12-19T11:29:25.674Z,80.30
2022-12-19T11:29:32.146Z,76.00
2022-12-19T11:29:44.433Z,86.67
2022-12-19T11:30:46.256Z,86.40
2022-12-19T11:32:41.091Z,74.73
2022-12-19T11:35:18.370Z,64.40
2022-12-19T11:37:57.194Z,77.53
2022-12-19T11:40:49.001Z,80.27
2022-12-19T11:43:47.079Z,81.07
2022-12-19T11:47:06.189Z,83.37
2022-12-19T11:49:37.326Z,81.70
2022-12-19T11:56:03.657Z,72.10
2022-12-19T11:58:30.911Z,78.47
2022-12-19T12:01:06.736Z,75.20
2022-12-19T12:03:39.641Z,70.73
2022-12-19T12:06:17.697Z,73.20
2022-12-19T12:13:36.934Z,76.90
2022-12-19T12:22:43.746Z,70.50
2022-12-19T12:24:04.584Z,74.70
2022-12-19T12:31:05.880Z,63.93
2022-12-19T12:31:13.894Z,68.60
2022-12-19T12:31:47.725Z,61.93
2022-12-19T12:31:57.405Z,63.50
2022-12-19T12:35:30.457Z,71.77
2022-12-19T12:40:44.221Z,66.27
2022-12-19T12:43:35.105Z,58.80
2022-12-19T12:46:08.699Z,67.10
2022-12-19T12:49:01.260Z,67.40
2022-12-19T12:51:29.140Z,62.10
2022-12-19T12:54:05.150Z,59.60
2022-12-19T12:56:32.652Z,62.93
2022-12-19T12:59:06.708Z,63.47
2022-12-19T13:01:38.827Z,61.97
2022-12-19T13:04:11.839Z,59.00
2022-12-19T13:06:41.557Z,56.87
2022-12-19T13:09:08.586Z,51.43
2022-12-19T13:12:07.514Z,55.03
2022-12-19T13:14:34.453Z,54.07
2022-12-19T13:17:12.710Z,58.60
2022-12-19T13:19:56.808Z,57.93
2022-12-19T13:22:39.825Z,58.07
2022-12-19T13:25:34.882Z,68.77
2022-12-19T13:28:01.958Z,57.53
2022-12-19T13:30:30.845Z,59.60
2022-12-19T13:33:00.585Z,61.33
2022-12-19T13:36:49.979Z,54.37
2022-12-19T13:39:51.497Z,59.93
2022-12-19T13:41:46.413Z,58.03
2022-12-19T13:44:14.008Z,58.43
2022-12-19T13:46:45.816Z,67.37
2022-12-19T13:49:22.534Z,59.47
2022-12-19T13:51:57.528Z,55.20
2022-12-19T13:54:32.998Z,64.00
2022-12-19T13:57:08.048Z,61.30
2022-12-19T13:59:40.078Z,65.87
2022-12-19T14:02:16.859Z,64.67
2022-12-19T14:04:45.576Z,63.43
2022-12-19T14:07:38.090Z,58.10
2022-12-19T14:11:37.764Z,63.47
2022-12-19T14:13:52.487Z,70.17
2022-12-19T14:16:16.912Z,59.63
2022-12-19T14:18:49.968Z,65.23
2022-12-19T14:22:07.899Z,62.43
2022-12-19T14:24:23.292Z,64.97
2022-12-19T14:28:19.826Z,63.50
2022-12-19T14:30:30.130Z,63.93
2022-12-19T14:33:44.254Z,66.53
2022-12-19T14:36:07.954Z,66.73
2022-12-19T14:39:24.814Z,68.60
2022-12-19T14:41:46.773Z,61.40
2022-12-19T14:52:34.559Z,65.73
2022-12-19T14:52:44.921Z,61.90
2022-12-19T14:54:03.318Z,64.70
2022-12-19T14:54:40.346Z,64.90
2022-12-19T14:56:08.288Z,64.93
2022-12-19T14:58:56.240Z,57.80
2022-12-19T15:01:26.596Z,63.90
2022-12-19T15:04:52.316Z,64.07
2022-12-19T15:07:23.599Z,60.93
2022-12-19T15:11:04.819Z,70.17
2022-12-19T15:14:46.505Z,67.83
2022-12-19T15:16:31.100Z,68.53
2022-12-19T15:19:01.211Z,72.00
2022-12-19T15:21:29.976Z,67.97
2022-12-19T15:23:57.147Z,67.57
2022-12-19T15:26:35.162Z,73.63
2022-12-19T15:29:07.247Z,71.53
2022-12-19T15:31:40.552Z,64.03
2022-12-19T15:36:58.508Z,69.50
2022-12-19T15:39:29.478Z,64.97
2022-12-19T15:41:59.459Z,65.50
2022-12-19T15:44:36.880Z,78.40
2022-12-19T15:47:18.231Z,69.50
2022-12-19T15:49:46.148Z,63.67
2022-12-19T15:52:21.387Z,66.53
2022-12-19T15:54:50.392Z,69.70
2022-12-19T15:57:30.892Z,77.80
2022-12-19T16:00:01.385Z,77.17
2022-12-19T16:03:12.809Z,64.27
2022-12-19T16:05:21.978Z,70.37
2022-12-19T16:07:49.184Z,67.47
2022-12-19T16:10:16.836Z,70.00
2022-12-19T16:12:58.036Z,62.87
2022-12-19T16:15:30.883Z,69.97
2022-12-19T16:18:00.577Z,71.77
2022-12-19T16:20:39.543Z,75.37
2022-12-19T16:23:07.711Z,67.83
2022-12-19T16:25:41.311Z,77.77
2022-12-19T16:28:17.213Z,72.57
2022-12-19T16:30:44.738Z,84.37
2022-12-19T16:33:20.322Z,76.10
2022-12-19T16:36:04.219Z,64.70
2022-12-19T16:38:33.442Z,68.10
2022-12-19T16:41:01.684Z,66.03
2022-12-19T16:43:28.788Z,62.47
2022-12-19T16:46:00.719Z,66.30
2022-12-19T16:48:32.227Z,63.27
2022-12-19T16:50:59.805Z,65.67
2022-12-19T16:53:26.860Z,76.47
2022-12-19T16:55:56.311Z,73.93
2022-12-19T16:58:27.300Z,70.97
2022-12-19T17:00:55.912Z,79.30
2022-12-19T17:03:41.596Z,73.30
2022-12-19T17:06:13.861Z,76.70
2022-12-19T17:08:40.879Z,70.60
2022-12-19T17:11:23.284Z,75.73
2022-12-19T17:13:58.979Z,78.00
2022-12-19T17:16:26.052Z,65.83
2022-12-19T17:18:53.139Z,67.10
2022-12-19T17:21:22.012Z,65.10
2022-12-19T17:23:49.997Z,71.10
2022-12-19T17:26:18.456Z,73.93
2022-12-19T17:28:49.117Z,77.10
2022-12-19T17:31:28.450Z,67.17
2022-12-19T17:33:57.893Z,71.90
2022-12-19T17:36:32.664Z,68.67
2022-12-19T17:39:02.255Z,72.03
2022-12-19T17:41:29.333Z,74.77
2022-12-19T17:43:56.505Z,70.30
2022-12-19T17:46:24.551Z,71.00
2022-12-19T17:48:52.982Z,71.57
2022-12-19T17:51:23.213Z,72.40
2022-12-19T17:53:50.814Z,77.73
2022-12-19T17:56:20.456Z,67.03
2022-12-19T17:58:49.001Z,69.57
2022-12-19T18:01:21.500Z,61.53
2022-12-19T18:03:50.396Z,75.77
2022-12-19T18:06:17.699Z,62.23
2022-12-19T18:08:45.068Z,61.63
2022-12-19T18:11:22.955Z,63.63
2022-12-19T18:13:50.497Z,67.30
2022-12-19T18:16:22.919Z,60.97
2022-12-19T18:18:50.047Z,63.77
2022-12-19T18:21:22.396Z,65.13
2022-12-19T18:23:49.534Z,63.37
2022-12-19T18:26:17.110Z,67.47
2022-12-19T18:28:44.156Z,67.23
2022-12-19T18:31:25.570Z,66.07
2022-12-19T18:33:54.487Z,68.03
2022-12-19T18:36:24.920Z,60.83
2022-12-19T18:38:53.018Z,65.03
2022-12-19T18:41:21.380Z,61.87
2022-12-19T18:43:49.588Z,54.90
2022-12-19T18:46:26.046Z,65.43
2022-12-19T18:48:53.180Z,65.37
2022-12-19T18:51:23.250Z,73.60
2022-12-19T18:53:51.029Z,69.77
2022-12-19T18:56:18.039Z,67.03
2022-12-19T18:58:45.125Z,63.97
2022-12-19T19:01:15.761Z,77.63
2022-12-19T19:03:53.047Z,75.33
2022-12-19T19:06:28.989Z,70.50
2022-12-19T19:08:57.077Z,74.23
2022-12-19T19:11:42.641Z,80.90
2022-12-19T19:14:09.814Z,71.47
2022-12-19T19:16:37.612Z,72.70
2022-12-19T19:19:07.188Z,74.00
2022-12-19T19:21:35.713Z,80.80
2022-12-19T19:24:16.090Z,80.20
2022-12-19T19:26:43.183Z,96.10
2022-12-19T19:29:10.447Z,81.70
2022-12-19T19:31:40.915Z,78.43
2022-12-19T19:34:30.789Z,76.97
2022-12-19T19:37:00.530Z,85.60
2022-12-19T19:39:28.131Z,79.97
2022-12-19T19:41:56.407Z,79.03
2022-12-19T19:44:23.634Z,77.60
2022-12-19T19:46:50.840Z,85.60
2022-12-19T19:49:17.969Z,73.93
2022-12-19T19:51:44.980Z,67.20
2022-12-19T19:54:12.116Z,70.50
2022-12-19T19:56:39.628Z,75.30
2022-12-19T19:59:06.789Z,66.53
2022-12-19T20:01:34.015Z,69.83
2022-12-19T20:04:01.153Z,73.73
2022-12-19T20:06:28.257Z,72.63
2022-12-19T20:08:55.316Z,68.23
2022-12-19T20:11:22.371Z,68.07
2022-12-19T20:13:49.629Z,66.00
2022-12-19T20:16:18.952Z,78.73
2022-12-19T20:18:52.909Z,73.07
2022-12-19T20:21:20.510Z,81.77
2022-12-19T20:23:48.352Z,73.93
2022-12-19T20:26:16.673Z,75.87
2022-12-19T20:28:48.950Z,77.63
2022-12-19T20:31:22.222Z,86.50
2022-12-19T20:33:50.649Z,91.53
2022-12-19T20:36:18.073Z,88.80
2022-12-19T20:38:46.341Z,84.33
2022-12-19T20:41:13.876Z,85.93
2022-12-19T20:43:41.445Z,94.73
2022-12-19T20:46:16.716Z,88.80
2022-12-19T20:48:45.067Z,85.27
2022-12-19T20:51:13.172Z,79.83
2022-12-19T20:53:41.727Z,85.70
2022-12-19T20:56:13.879Z,86.33
2022-12-19T20:58:41.138Z,92.57
2022-12-19T21:01:11.302Z,98.30
2022-12-19T21:03:39.692Z,91.73
2022-12-19T21:06:08.424Z,86.13
2022-12-19T21:08:35.632Z,96.50
2022-12-19T21:11:05.362Z,97.13
2022-12-19T21:13:33.207Z,100.30
2022-12-19T21:16:03.194Z,90.07
2022-12-19T21:18:30.587Z,87.20
2022-12-19T21:20:59.408Z,97.27
2022-12-19T21:23:27.024Z,91.23
2022-12-19T21:26:00.406Z,85.27
2022-12-19T21:28:27.692Z,92.90
2022-12-19T21:31:04.174Z,89.47
2022-12-19T21:33:31.802Z,88.30
2022-12-19T21:36:05.921Z,92.13
2022-12-19T21:38:32.907Z,89.73
2022-12-19T21:41:06.359Z,85.77
2022-12-19T21:43:34.523Z,91.90
2022-12-19T21:46:09.979Z,102.73
2022-12-19T21:48:42.191Z,85.77
2022-12-19T21:51:10.290Z,98.63
2022-12-19T21:53:38.325Z,90.93
2022-12-19T21:56:34.952Z,84.67
2022-12-19T21:59:13.502Z,86.53
2022-12-19T22:01:41.736Z,85.00
2022-12-19T22:04:15.166Z,86.87
2022-12-19T22:06:42.372Z,93.20
2022-12-19T22:09:13.714Z,87.67
2022-12-19T22:11:41.303Z,91.83
2022-12-19T22:14:10.390Z,90.60
2022-12-19T22:16:37.378Z,88.60
2022-12-19T22:19:05.116Z,92.67
2022-12-19T22:21:32.839Z,91.17
2022-12-19T22:24:01.945Z,86.43
2022-12-19T22:26:30.831Z,96.90
2022-12-19T22:28:58.844Z,87.93
2022-12-19T22:31:33.592Z,84.40
2022-12-19T22:34:04.218Z,83.93
2022-12-19T22:36:33.419Z,92.47
2022-12-19T22:39:02.561Z,84.83
2022-12-19T22:41:29.743Z,96.07
2022-12-19T22:43:56.833Z,95.20
2022-12-19T22:46:29.983Z,92.83
2022-12-19T22:48:59.134Z,88.47
2022-12-19T22:51:27.269Z,85.83
2022-12-19T22:53:55.108Z,83.77
2022-12-19T22:56:24.797Z,79.83
2022-12-19T22:58:54.125Z,84.27
2022-12-19T23:01:29.579Z,87.83
2022-12-19T23:03:58.910Z,81.13
2022-12-19T23:06:27.813Z,84.17
2022-12-19T23:08:55.051Z,78.67
2022-12-19T23:11:29.850Z,77.67
2022-12-19T23:13:57.194Z,83.03
2022-12-19T23:16:24.507Z,96.20
2022-12-19T23:18:51.647Z,84.00
2022-12-19T23:21:21.092Z,91.13
2022-12-19T23:23:51.275Z,78.20
2022-12-19T23:26:33.940Z,76.03
2022-12-19T23:29:04.121Z,77.70
2022-12-19T23:31:31.827Z,71.60
2022-12-19T23:33:59.317Z,88.90
2022-12-19T23:37:08.510Z,76.90
2022-12-19T23:39:14.271Z,79.40
2022-12-19T23:41:41.568Z,82.23
2022-12-19T23:44:09.579Z,79.37
2022-12-19T23:46:37.489Z,79.90
2022-12-19T23:49:04.678Z,74.77
2022-12-19T23:51:32.219Z,79.30
2022-12-19T23:53:59.224Z,76.27
2022-12-19T23:56:29.518Z,83.50
2022-12-19T23:58:57.568Z,70.80
